GLG1602 SEQM-SEGU
Flight info
| Callsign | GLG1602 |
|---|---|
| Flight time | 0h 34m |
| Altitude | 23000 |
| Route | TEMOX3A TEMOX TEMOX2 |
| Aircraft | A320/M-SDE3FGHIRWY/LB1 |
Departure
| Time | 2026-04-21 19:49 |
|---|---|
| Airport | Mariscal Sucre International Airport (SEQM) |
Arrival
| Time | 2026-04-21 20:24 |
|---|---|
| Airport | José Joaquín de Olmedo International Airport (SEGU) |
| Time | Latitude | Longitude | Altitude | Speed | Heading |
|---|---|---|---|---|---|
| 2026-04-21 19:20 | -0.12613 | -78.35915 | 7984 ft | 0 kts | 268° |
| 2026-04-21 19:37 | -0.12613 | -78.35910 | 7988 ft | 2 kts | 268° |
| 2026-04-21 19:38 | -0.12612 | -78.35891 | 7984 ft | 3 kts | 268° |
| 2026-04-21 19:38 | -0.12611 | -78.35872 | 7984 ft | 3 kts | 256° |
| 2026-04-21 19:38 | -0.12607 | -78.35859 | 7984 ft | 3 kts | 241° |
| 2026-04-21 19:38 | -0.12590 | -78.35840 | 7993 ft | 3 kts | 207° |
| 2026-04-21 19:39 | -0.12573 | -78.35834 | 7984 ft | 2 kts | 181° |
| 2026-04-21 19:39 | -0.12566 | -78.35834 | 7984 ft | 0 kts | 179° |
| 2026-04-21 19:42 | -0.12569 | -78.35834 | 7984 ft | 1 kts | 179° |
| 2026-04-21 19:42 | -0.12582 | -78.35833 | 7984 ft | 3 kts | 179° |
| 2026-04-21 19:42 | -0.12608 | -78.35833 | 7984 ft | 4 kts | 178° |
| 2026-04-21 19:43 | -0.12643 | -78.35830 | 7984 ft | 6 kts | 175° |
| 2026-04-21 19:43 | -0.12686 | -78.35818 | 7986 ft | 7 kts | 140° |
| 2026-04-21 19:43 | -0.12695 | -78.35773 | 7984 ft | 7 kts | 89° |
| 2026-04-21 19:43 | -0.12693 | -78.35717 | 7984 ft | 9 kts | 88° |
| 2026-04-21 19:44 | -0.12691 | -78.35650 | 7990 ft | 10 kts | 87° |
| 2026-04-21 19:44 | -0.12723 | -78.35603 | 7986 ft | 10 kts | 169° |
| 2026-04-21 19:44 | -0.12799 | -78.35595 | 7986 ft | 12 kts | 177° |
| 2026-04-21 19:44 | -0.12891 | -78.35591 | 7985 ft | 14 kts | 175° |
| 2026-04-21 19:45 | -0.12986 | -78.35584 | 7985 ft | 11 kts | 183° |
| 2026-04-21 19:45 | -0.13030 | -78.35585 | 7989 ft | 8 kts | 178° |
| 2026-04-21 19:45 | -0.13093 | -78.35582 | 7994 ft | 10 kts | 178° |
| 2026-04-21 19:45 | -0.13174 | -78.35579 | 7986 ft | 13 kts | 178° |
| 2026-04-21 19:46 | -0.13272 | -78.35575 | 7985 ft | 15 kts | 177° |
| 2026-04-21 19:46 | -0.13387 | -78.35570 | 7989 ft | 18 kts | 178° |
| 2026-04-21 19:46 | -0.13500 | -78.35566 | 7985 ft | 17 kts | 178° |
| 2026-04-21 19:46 | -0.13642 | -78.35558 | 7985 ft | 22 kts | 176° |
| 2026-04-21 19:47 | -0.13781 | -78.35553 | 7984 ft | 18 kts | 177° |
| 2026-04-21 19:47 | -0.13889 | -78.35548 | 7984 ft | 13 kts | 177° |
| 2026-04-21 19:47 | -0.13963 | -78.35545 | 7988 ft | 10 kts | 178° |
| 2026-04-21 19:47 | -0.14052 | -78.35542 | 7993 ft | 15 kts | 177° |
| 2026-04-21 19:48 | -0.14171 | -78.35537 | 7984 ft | 19 kts | 177° |
| 2026-04-21 19:48 | -0.14257 | -78.35452 | 7984 ft | 21 kts | 86° |
| 2026-04-21 19:48 | -0.14217 | -78.35365 | 7983 ft | 9 kts | 360° |
| 2026-04-21 19:48 | -0.14154 | -78.35366 | 7983 ft | 11 kts | 358° |
| 2026-04-21 19:49 | -0.13884 | -78.35378 | 7984 ft | 72 kts | 358° |
| 2026-04-21 19:49 | -0.13186 | -78.35408 | 7989 ft | 127 kts | 357° |
| 2026-04-21 19:49 | -0.12139 | -78.35455 | 7988 ft | 172 kts | 356° |
| 2026-04-21 19:49 | -0.10948 | -78.35530 | 8626 ft | 168 kts | 355° |
| 2026-04-21 19:50 | -0.09740 | -78.35599 | 9119 ft | 176 kts | 351° |
| 2026-04-21 19:50 | -0.08545 | -78.35888 | 9862 ft | 177 kts | 342° |
| 2026-04-21 19:50 | -0.07371 | -78.36274 | 10367 ft | 178 kts | 339° |
| 2026-04-21 19:50 | -0.06193 | -78.36679 | 10772 ft | 180 kts | 339° |
| 2026-04-21 19:51 | -0.05001 | -78.37089 | 11190 ft | 184 kts | 339° |
| 2026-04-21 19:51 | -0.03731 | -78.37523 | 11334 ft | 203 kts | 339° |
| 2026-04-21 19:51 | -0.02330 | -78.37997 | 11462 ft | 222 kts | 339° |
| 2026-04-21 19:51 | -0.00800 | -78.38510 | 11588 ft | 243 kts | 339° |
| 2026-04-21 19:52 | 0.00888 | -78.39073 | 11738 ft | 268 kts | 340° |
| 2026-04-21 19:52 | 0.02734 | -78.39684 | 11997 ft | 291 kts | 340° |
| 2026-04-21 19:52 | 0.04730 | -78.40341 | 12291 ft | 310 kts | 340° |
| 2026-04-21 19:52 | 0.06774 | -78.41007 | 13157 ft | 308 kts | 340° |
| 2026-04-21 19:53 | 0.08804 | -78.41711 | 13921 ft | 309 kts | 333° |
| 2026-04-21 19:53 | 0.10476 | -78.43055 | 14549 ft | 308 kts | 303° |
| 2026-04-21 19:53 | 0.11467 | -78.44954 | 15156 ft | 310 kts | 292° |
| 2026-04-21 19:53 | 0.12264 | -78.46966 | 15771 ft | 313 kts | 289° |
| 2026-04-21 19:54 | 0.12996 | -78.49028 | 16386 ft | 317 kts | 288° |
| 2026-04-21 19:54 | 0.13725 | -78.51128 | 16808 ft | 322 kts | 288° |
| 2026-04-21 19:54 | 0.14470 | -78.53237 | 16898 ft | 322 kts | 288° |
| 2026-04-21 19:54 | 0.15014 | -78.55398 | 16909 ft | 320 kts | 275° |
| 2026-04-21 19:55 | 0.14989 | -78.57608 | 16890 ft | 318 kts | 260° |
| 2026-04-21 19:55 | 0.14363 | -78.59735 | 17272 ft | 321 kts | 245° |
| 2026-04-21 19:55 | 0.13210 | -78.61647 | 17859 ft | 323 kts | 231° |
| 2026-04-21 19:55 | 0.11570 | -78.63250 | 18092 ft | 339 kts | 217° |
| 2026-04-21 19:56 | 0.09607 | -78.64644 | 18350 ft | 351 kts | 215° |
| 2026-04-21 19:56 | 0.07560 | -78.66066 | 18508 ft | 366 kts | 215° |
| 2026-04-21 19:56 | 0.05422 | -78.67547 | 18670 ft | 379 kts | 215° |
| 2026-04-21 19:56 | 0.03246 | -78.69061 | 19046 ft | 384 kts | 215° |
| 2026-04-21 19:57 | 0.01045 | -78.70604 | 19469 ft | 388 kts | 216° |
| 2026-04-21 19:57 | -0.01163 | -78.72164 | 19933 ft | 390 kts | 216° |
| 2026-04-21 19:57 | -0.03386 | -78.73744 | 20405 ft | 394 kts | 216° |
| 2026-04-21 19:57 | -0.05624 | -78.75341 | 20862 ft | 397 kts | 216° |
| 2026-04-21 19:58 | -0.07880 | -78.76951 | 21355 ft | 400 kts | 216° |
| 2026-04-21 19:58 | -0.10156 | -78.78574 | 21789 ft | 404 kts | 217° |
| 2026-04-21 19:58 | -0.12449 | -78.80208 | 22213 ft | 407 kts | 217° |
| 2026-04-21 19:58 | -0.14766 | -78.81858 | 22635 ft | 410 kts | 217° |
| 2026-04-21 19:59 | -0.17098 | -78.83515 | 23057 ft | 413 kts | 217° |
| 2026-04-21 19:59 | -0.19450 | -78.85183 | 23183 ft | 415 kts | 217° |
| 2026-04-21 19:59 | -0.21806 | -78.86852 | 23202 ft | 415 kts | 217° |
| 2026-04-21 19:59 | -0.24163 | -78.88522 | 23199 ft | 415 kts | 216° |
| 2026-04-21 20:00 | -0.26526 | -78.90191 | 23194 ft | 416 kts | 216° |
| 2026-04-21 20:00 | -0.28887 | -78.91856 | 23199 ft | 416 kts | 216° |
| 2026-04-21 20:00 | -0.31251 | -78.93523 | 23193 ft | 416 kts | 216° |
| 2026-04-21 20:00 | -0.33616 | -78.95190 | 23193 ft | 416 kts | 216° |
| 2026-04-21 20:01 | -0.35981 | -78.96856 | 23188 ft | 416 kts | 216° |
| 2026-04-21 20:01 | -0.38350 | -78.98523 | 23181 ft | 416 kts | 216° |
| 2026-04-21 20:01 | -0.40711 | -79.00186 | 23180 ft | 416 kts | 216° |
| 2026-04-21 20:01 | -0.43081 | -79.01854 | 23172 ft | 416 kts | 216° |
| 2026-04-21 20:02 | -0.45445 | -79.03521 | 23164 ft | 416 kts | 216° |
| 2026-04-21 20:02 | -0.47809 | -79.05190 | 23155 ft | 416 kts | 216° |
| 2026-04-21 20:02 | -0.50205 | -79.06882 | 23147 ft | 416 kts | 216° |
| 2026-04-21 20:02 | -0.52568 | -79.08548 | 23144 ft | 416 kts | 216° |
| 2026-04-21 20:03 | -0.54936 | -79.10216 | 23138 ft | 416 kts | 216° |
| 2026-04-21 20:03 | -0.57301 | -79.11881 | 23134 ft | 416 kts | 216° |
| 2026-04-21 20:03 | -0.59802 | -79.13348 | 23137 ft | 418 kts | 206° |
| 2026-04-21 20:03 | -0.62433 | -79.14572 | 23126 ft | 418 kts | 206° |
| 2026-04-21 20:04 | -0.65071 | -79.15794 | 23124 ft | 418 kts | 206° |
| 2026-04-21 20:04 | -0.67706 | -79.17013 | 23119 ft | 418 kts | 206° |
| 2026-04-21 20:04 | -0.70349 | -79.18238 | 23120 ft | 418 kts | 206° |
| 2026-04-21 20:04 | -0.72985 | -79.19463 | 23110 ft | 418 kts | 206° |
| 2026-04-21 20:05 | -0.75621 | -79.20693 | 23103 ft | 418 kts | 206° |
| 2026-04-21 20:05 | -0.78258 | -79.21922 | 23101 ft | 418 kts | 206° |
| 2026-04-21 20:05 | -0.80893 | -79.23148 | 23090 ft | 418 kts | 206° |
| 2026-04-21 20:05 | -0.83531 | -79.24372 | 23090 ft | 418 kts | 206° |
| 2026-04-21 20:06 | -0.86172 | -79.25598 | 23084 ft | 419 kts | 206° |
| 2026-04-21 20:06 | -0.88814 | -79.26826 | 23076 ft | 419 kts | 206° |
| 2026-04-21 20:06 | -0.91448 | -79.28050 | 23070 ft | 419 kts | 206° |
| 2026-04-21 20:06 | -0.94095 | -79.29282 | 23065 ft | 419 kts | 206° |
| 2026-04-21 20:07 | -0.96735 | -79.30511 | 23061 ft | 419 kts | 206° |
| 2026-04-21 20:07 | -0.99375 | -79.31737 | 23014 ft | 417 kts | 206° |
| 2026-04-21 20:07 | -1.01976 | -79.32943 | 22747 ft | 407 kts | 206° |
| 2026-04-21 20:07 | -1.04519 | -79.34123 | 22372 ft | 400 kts | 206° |
| 2026-04-21 20:08 | -1.07018 | -79.35285 | 21892 ft | 397 kts | 206° |
| 2026-04-21 20:08 | -1.09528 | -79.36451 | 21416 ft | 394 kts | 206° |
| 2026-04-21 20:08 | -1.12007 | -79.37605 | 20933 ft | 392 kts | 206° |
| 2026-04-21 20:08 | -1.14470 | -79.38752 | 20458 ft | 389 kts | 206° |
| 2026-04-21 20:09 | -1.16920 | -79.39893 | 19965 ft | 388 kts | 206° |
| 2026-04-21 20:09 | -1.19359 | -79.41028 | 19474 ft | 386 kts | 206° |
| 2026-04-21 20:09 | -1.21788 | -79.42156 | 18968 ft | 385 kts | 206° |
| 2026-04-21 20:09 | -1.24216 | -79.43284 | 18462 ft | 384 kts | 206° |
| 2026-04-21 20:10 | -1.26661 | -79.44421 | 17908 ft | 383 kts | 206° |
| 2026-04-21 20:10 | -1.29068 | -79.45540 | 17391 ft | 380 kts | 206° |
| 2026-04-21 20:10 | -1.31459 | -79.46652 | 16910 ft | 377 kts | 206° |
| 2026-04-21 20:10 | -1.33825 | -79.47753 | 16420 ft | 375 kts | 206° |
| 2026-04-21 20:11 | -1.36184 | -79.48849 | 15932 ft | 373 kts | 206° |
| 2026-04-21 20:11 | -1.38526 | -79.49937 | 15451 ft | 371 kts | 206° |
| 2026-04-21 20:11 | -1.40863 | -79.51021 | 14967 ft | 369 kts | 206° |
| 2026-04-21 20:11 | -1.43181 | -79.52098 | 14490 ft | 367 kts | 206° |
| 2026-04-21 20:12 | -1.45493 | -79.53174 | 14007 ft | 366 kts | 206° |
| 2026-04-21 20:12 | -1.47798 | -79.54247 | 13494 ft | 364 kts | 206° |
| 2026-04-21 20:12 | -1.49306 | -79.54950 | 13162 ft | 363 kts | 206° |
| 2026-04-21 20:12 | -1.52363 | -79.56375 | 12504 ft | 360 kts | 206° |
| 2026-04-21 20:13 | -1.54627 | -79.57426 | 12010 ft | 357 kts | 205° |
| 2026-04-21 20:13 | -1.56871 | -79.58468 | 11522 ft | 355 kts | 205° |
| 2026-04-21 20:13 | -1.59102 | -79.59504 | 11034 ft | 353 kts | 205° |
| 2026-04-21 20:13 | -1.61325 | -79.60536 | 10536 ft | 351 kts | 205° |
| 2026-04-21 20:14 | -1.63514 | -79.61553 | 10280 ft | 338 kts | 205° |
| 2026-04-21 20:14 | -1.65569 | -79.62509 | 10143 ft | 314 kts | 205° |
| 2026-04-21 20:14 | -1.67511 | -79.63415 | 9776 ft | 306 kts | 205° |
| 2026-04-21 20:14 | -1.69421 | -79.64308 | 9609 ft | 301 kts | 205° |
| 2026-04-21 20:15 | -1.71317 | -79.65192 | 9308 ft | 302 kts | 205° |
| 2026-04-21 20:15 | -1.73227 | -79.66080 | 8918 ft | 301 kts | 205° |
| 2026-04-21 20:15 | -1.75114 | -79.66955 | 8558 ft | 298 kts | 205° |
| 2026-04-21 20:15 | -1.76976 | -79.67819 | 8114 ft | 295 kts | 205° |
| 2026-04-21 20:16 | -1.78838 | -79.68684 | 7460 ft | 292 kts | 205° |
| 2026-04-21 20:16 | -1.80671 | -79.69536 | 6823 ft | 289 kts | 205° |
| 2026-04-21 20:16 | -1.82486 | -79.70380 | 6214 ft | 286 kts | 205° |
| 2026-04-21 20:16 | -1.84268 | -79.71209 | 5610 ft | 281 kts | 205° |
| 2026-04-21 20:17 | -1.86015 | -79.72022 | 5092 ft | 277 kts | 205° |
| 2026-04-21 20:17 | -1.87761 | -79.72834 | 4612 ft | 277 kts | 205° |
| 2026-04-21 20:17 | -1.89503 | -79.73644 | 4175 ft | 276 kts | 205° |
| 2026-04-21 20:17 | -1.91234 | -79.74450 | 3885 ft | 269 kts | 205° |
| 2026-04-21 20:18 | -1.92356 | -79.74972 | 3839 ft | 258 kts | 205° |
| 2026-04-21 20:18 | -1.93880 | -79.75768 | 3768 ft | 240 kts | 210° |
| 2026-04-21 20:18 | -1.95286 | -79.76584 | 3675 ft | 228 kts | 210° |
| 2026-04-21 20:18 | -1.96629 | -79.77355 | 3577 ft | 217 kts | 210° |
| 2026-04-21 20:19 | -1.97900 | -79.78084 | 3516 ft | 205 kts | 210° |
| 2026-04-21 20:19 | -1.99104 | -79.78776 | 3378 ft | 194 kts | 210° |
| 2026-04-21 20:19 | -2.00253 | -79.79438 | 3162 ft | 188 kts | 210° |
| 2026-04-21 20:19 | -2.01370 | -79.80082 | 2934 ft | 183 kts | 210° |
| 2026-04-21 20:20 | -2.02460 | -79.80710 | 2709 ft | 179 kts | 210° |
| 2026-04-21 20:20 | -2.03529 | -79.81326 | 2477 ft | 176 kts | 210° |
| 2026-04-21 20:20 | -2.04576 | -79.81929 | 2259 ft | 172 kts | 210° |
| 2026-04-21 20:20 | -2.05604 | -79.82522 | 2044 ft | 169 kts | 210° |
| 2026-04-21 20:21 | -2.06610 | -79.83102 | 1824 ft | 164 kts | 210° |
| 2026-04-21 20:21 | -2.07574 | -79.83657 | 1621 ft | 158 kts | 210° |
| 2026-04-21 20:21 | -2.08516 | -79.84200 | 1423 ft | 155 kts | 210° |
| 2026-04-21 20:21 | -2.09445 | -79.84735 | 1232 ft | 154 kts | 210° |
| 2026-04-21 20:22 | -2.10370 | -79.85268 | 1038 ft | 153 kts | 210° |
| 2026-04-21 20:22 | -2.12221 | -79.86334 | 663 ft | 154 kts | 209° |
| 2026-04-21 20:22 | -2.13155 | -79.86867 | 462 ft | 155 kts | 209° |
| 2026-04-21 20:23 | -2.14081 | -79.87408 | 253 ft | 155 kts | 209° |
| 2026-04-21 20:23 | -2.15030 | -79.87953 | 50 ft | 155 kts | 208° |
| 2026-04-21 20:23 | -2.15861 | -79.88432 | 27 ft | 112 kts | 209° |
| 2026-04-21 20:23 | -2.16385 | -79.88735 | 28 ft | 58 kts | 209° |
| 2026-04-21 20:24 | -2.16662 | -79.88895 | 27 ft | 31 kts | 210° |
| 2026-04-21 20:24 | -2.16720 | -79.88977 | 28 ft | 5 kts | 314° |
| 2026-04-21 20:24 | -2.16670 | -79.89003 | 28 ft | 12 kts | 12° |
| 2026-04-21 20:24 | -2.16562 | -79.88941 | 28 ft | 23 kts | 28° |
| 2026-04-21 20:25 | -2.16396 | -79.88853 | 28 ft | 29 kts | 31° |
| 2026-04-21 20:25 | -2.16219 | -79.88749 | 29 ft | 30 kts | 28° |
| 2026-04-21 20:25 | -2.16039 | -79.88648 | 29 ft | 30 kts | 29° |
| 2026-04-21 20:25 | -2.15885 | -79.88559 | 28 ft | 22 kts | 31° |
| 2026-04-21 20:26 | -2.15748 | -79.88479 | 28 ft | 24 kts | 30° |
| 2026-04-21 20:26 | -2.15599 | -79.88395 | 28 ft | 25 kts | 31° |
| 2026-04-21 20:26 | -2.15445 | -79.88306 | 28 ft | 26 kts | 30° |
| 2026-04-21 20:26 | -2.15283 | -79.88215 | 28 ft | 22 kts | 25° |
| 2026-04-21 20:27 | -2.15252 | -79.88243 | 28 ft | 5 kts | 294° |
| 2026-04-21 20:27 | -2.15233 | -79.88277 | 28 ft | 8 kts | 300° |
| 2026-04-21 20:27 | -2.15199 | -79.88336 | 29 ft | 11 kts | 299° |
| 2026-04-21 20:27 | -2.15152 | -79.88403 | 29 ft | 11 kts | 339° |
| 2026-04-21 20:28 | -2.15089 | -79.88370 | 29 ft | 11 kts | 27° |
| 2026-04-21 20:28 | -2.15016 | -79.88330 | 29 ft | 13 kts | 30° |
| 2026-04-21 20:28 | -2.14934 | -79.88283 | 29 ft | 14 kts | 29° |
| 2026-04-21 20:28 | -2.14846 | -79.88242 | 29 ft | 9 kts | 349° |
| 2026-04-21 20:29 | -2.14829 | -79.88274 | 29 ft | 4 kts | 296° |
| 2026-04-21 20:29 | -2.14817 | -79.88294 | 29 ft | 2 kts | 302° |
| 2026-04-21 20:29 | -2.14814 | -79.88306 | 29 ft | 1 kts | 270° |
| 2026-04-21 20:29 | -2.14815 | -79.88312 | 29 ft | 0 kts | 266° |
| 2026-04-21 20:30 | -2.14815 | -79.88313 | 29 ft | 0 kts | 266° |